Time;durP1;ratioP1;P1;durP2;ratioP2;P2;SDS_P1;SDS_P2;PMS_P1;PMS_P2;Temp;Humidity;BMP_temperature;BMP_pressure;BME280_temperature;BME280_humidity;BME280_pressure;Samples;Min_cycle;Max_cycle;Signal;HPM_P1;HPM_P2
2022/01/29 00:02:24;;;;;;;4.88;2.08;;;;;;;0.71;53.41;94339.13;5003340;28;20283;-73
2022/01/29 00:04:49;;;;;;;4.05;2.10;;;;;;;0.70;53.89;94337.56;5004848;28;20324;-73
2022/01/29 00:07:14;;;;;;;5.28;2.10;;;;;;;0.69;54.59;94338.56;5004804;28;20140;-73
2022/01/29 00:09:43;;;;;;;5.22;2.67;;;;;;;0.64;54.90;94328.81;5004775;28;20332;-72
2022/01/29 00:12:08;;;;;;;6.05;2.80;;;;;;;0.67;54.98;94335.41;4987413;28;20069;-72
2022/01/29 00:14:34;;;;;;;4.03;2.25;;;;;;;0.69;54.72;94333.31;5004322;28;20328;-73
2022/01/29 00:16:59;;;;;;;6.82;2.50;;;;;;;0.68;54.95;94344.88;5004550;28;20322;-74
2022/01/29 00:19:25;;;;;;;6.28;2.25;;;;;;;0.58;55.07;94341.03;5004612;28;20026;-73
2022/01/29 00:21:50;;;;;;;4.45;2.05;;;;;;;0.68;55.10;94352.75;4987134;28;20026;-73
2022/01/29 00:24:16;;;;;;;11.52;2.30;;;;;;;0.66;55.23;94349.56;5004399;28;20097;-73
2022/01/29 00:26:41;;;;;;;7.72;2.47;;;;;;;0.68;55.73;94352.75;5004298;28;20026;-73
2022/01/29 00:29:16;;;;;;;5.45;2.67;;;;;;;0.68;55.63;94350.13;5004315;28;20018;-73
2022/01/29 00:31:42;;;;;;;5.80;2.45;;;;;;;0.62;55.64;94345.81;5004422;28;20065;-74
2022/01/29 00:34:07;;;;;;;5.47;2.63;;;;;;;0.59;55.92;94345.28;5004475;28;20256;-72
2022/01/29 00:36:32;;;;;;;6.80;2.88;;;;;;;0.60;55.97;94341.59;5004172;28;20129;-73
2022/01/29 00:38:58;;;;;;;8.05;2.95;;;;;;;0.55;56.54;94361.69;4986580;28;20026;-73
2022/01/29 00:41:23;;;;;;;4.88;2.70;;;;;;;0.50;57.10;94348.53;5004005;28;20026;-73
2022/01/29 00:43:49;;;;;;;5.30;2.67;;;;;;;0.49;57.48;94346.91;5004163;28;20026;-72
2022/01/29 00:46:14;;;;;;;6.13;2.70;;;;;;;0.49;57.99;94344.28;5003870;28;20045;-72
2022/01/29 00:48:39;;;;;;;5.53;2.60;;;;;;;0.44;58.09;94350.25;5003862;28;20046;-72
2022/01/29 00:51:05;;;;;;;6.38;2.95;;;;;;;0.44;58.26;94349.47;5003994;28;20022;-72
2022/01/29 00:53:30;;;;;;;8.32;3.20;;;;;;;0.43;58.21;94332.94;5003908;28;20050;-72
2022/01/29 00:55:56;;;;;;;8.32;3.38;;;;;;;0.43;59.02;94342.63;5003799;28;20069;-72
2022/01/29 00:58:21;;;;;;;6.75;2.88;;;;;;;0.34;58.92;94339.59;5003804;28;20080;-73
2022/01/29 01:00:47;;;;;;;7.30;3.40;;;;;;;0.30;59.28;94333.25;4986194;28;20284;-73
2022/01/29 01:03:12;;;;;;;7.75;3.38;;;;;;;0.33;59.44;94348.50;5003529;28;20026;-73
2022/01/29 01:05:38;;;;;;;5.88;3.33;;;;;;;0.29;59.46;94342.94;5003655;28;20026;-73
2022/01/29 01:08:03;;;;;;;4.45;2.38;;;;;;;0.18;59.53;94339.34;5003292;28;20093;-73
2022/01/29 01:10:29;;;;;;;6.20;3.13;;;;;;;0.24;59.38;94355.94;5002562;28;20018;-73
2022/01/29 01:12:54;;;;;;;9.52;3.20;;;;;;;0.25;59.17;94339.19;5003441;28;20251;-73
2022/01/29 01:15:20;;;;;;;6.63;2.88;;;;;;;0.13;59.13;94336.63;5003603;28;20026;-73
2022/01/29 01:17:45;;;;;;;8.27;3.10;;;;;;;0.17;59.36;94316.78;5003355;28;20033;-73
2022/01/29 01:20:11;;;;;;;4.85;2.33;;;;;;;0.17;59.55;94340.38;5002782;28;20032;-73
2022/01/29 01:22:37;;;;;;;7.40;3.30;;;;;;;0.19;59.60;94338.31;5003427;28;20041;-73
2022/01/29 01:25:02;;;;;;;5.35;3.00;;;;;;;0.18;59.43;94347.22;5003221;28;20050;-74
2022/01/29 01:27:28;;;;;;;5.72;2.50;;;;;;;0.15;59.73;94334.56;5003218;28;20322;-73
2022/01/29 01:29:53;;;;;;;6.57;2.85;;;;;;;0.21;59.32;94330.22;5003351;28;20018;-73
2022/01/29 01:32:19;;;;;;;4.82;2.42;;;;;;;0.22;59.78;94321.31;5003239;28;20022;-73
2022/01/29 01:34:49;;;;;;;5.03;2.55;;;;;;;0.24;59.58;94329.72;5003179;28;20222;-73
2022/01/29 01:37:34;;;;;;;5.22;2.45;;;;;;;0.24;59.72;94319.25;5003292;28;20117;-73
2022/01/29 01:40:00;;;;;;;7.63;2.90;;;;;;;0.16;60.22;94322.25;5003117;28;20141;-73
2022/01/29 01:42:26;;;;;;;6.38;3.15;;;;;;;0.23;59.97;94322.13;5002952;28;20022;-73
2022/01/29 01:44:53;;;;;;;8.43;2.97;;;;;;;0.16;60.19;94336.19;5003086;28;20037;-73
2022/01/29 01:47:18;;;;;;;6.32;2.88;;;;;;;0.16;60.12;94333.56;5002927;28;20062;-73
2022/01/29 01:49:44;;;;;;;8.50;2.85;;;;;;;0.16;60.20;94335.38;5002948;28;20289;-73
2022/01/29 01:52:13;;;;;;;7.43;2.83;;;;;;;0.08;60.99;94320.84;5003059;28;20034;-74
2022/01/29 01:54:40;;;;;;;4.70;2.83;;;;;;;0.07;60.72;94324.47;5003021;28;20030;-74
2022/01/29 01:57:06;;;;;;;12.02;3.45;;;;;;;0.12;60.87;94327.19;5003103;28;20061;-74
2022/01/29 01:59:32;;;;;;;5.50;2.95;;;;;;;0.15;60.80;94328.53;5002790;28;20034;-74
2022/01/29 02:01:58;;;;;;;4.47;2.30;;;;;;;0.14;60.71;94330.38;5002835;28;20102;-74
2022/01/29 02:04:24;;;;;;;6.00;3.03;;;;;;;0.21;60.86;94322.34;5002611;28;20030;-74
2022/01/29 02:06:53;;;;;;;6.97;3.10;;;;;;;0.16;60.70;94336.19;5002882;28;20046;-74
2022/01/29 02:09:22;;;;;;;6.50;2.78;;;;;;;0.16;60.90;94328.31;5002831;28;20201;-74
2022/01/29 02:11:58;;;;;;;9.30;3.03;;;;;;;0.21;60.84;94319.72;5001476;28;20061;-74
2022/01/29 02:14:28;;;;;;;4.13;2.47;;;;;;;0.18;60.71;94326.25;5002554;28;20206;-74
2022/01/29 02:16:54;;;;;;;6.30;2.78;;;;;;;0.17;61.15;94332.50;5002721;28;20054;-74
2022/01/29 02:19:20;;;;;;;7.20;3.45;;;;;;;0.25;60.97;94333.97;5002785;28;20037;-73
2022/01/29 02:21:46;;;;;;;7.82;3.60;;;;;;;0.21;60.89;94335.47;5002594;28;20026;-74
2022/01/29 02:24:11;;;;;;;8.73;3.33;;;;;;;0.28;60.79;94338.72;5002796;28;20033;-74
2022/01/29 02:26:37;;;;;;;6.18;3.58;;;;;;;0.27;60.82;94344.22;5002781;28;20316;-73
2022/01/29 02:29:03;;;;;;;5.72;2.72;;;;;;;0.22;60.63;94342.28;5002612;28;20014;-74
2022/01/29 02:31:28;;;;;;;5.78;2.58;;;;;;;0.25;60.55;94347.06;5002529;28;20026;-74
2022/01/29 02:33:54;;;;;;;6.43;3.10;;;;;;;0.32;60.88;94341.66;4988680;28;20026;-74
2022/01/29 02:36:19;;;;;;;7.57;3.10;;;;;;;0.37;60.65;94352.25;5006624;28;20034;-74
2022/01/29 02:38:45;;;;;;;7.90;3.53;;;;;;;0.32;60.77;94344.28;5006283;28;20053;-74
2022/01/29 02:41:11;;;;;;;8.10;3.63;;;;;;;0.29;60.41;94342.16;5006329;28;20022;-74
2022/01/29 02:43:45;;;;;;;6.78;3.25;;;;;;;0.28;60.84;94340.53;5006511;28;20320;-74
2022/01/29 02:46:29;;;;;;;8.13;3.20;;;;;;;0.25;60.99;94338.41;5008294;28;20018;-74
2022/01/29 02:48:58;;;;;;;7.30;3.33;;;;;;;0.23;60.75;94353.59;5006094;28;20034;-74
2022/01/29 02:51:24;;;;;;;7.30;3.00;;;;;;;0.21;61.11;94347.78;5005970;28;20026;-73
2022/01/29 02:53:50;;;;;;;6.68;3.00;;;;;;;0.17;60.61;94350.88;5006262;28;20041;-73
2022/01/29 02:56:15;;;;;;;5.78;2.40;;;;;;;0.23;60.51;94343.09;5006165;28;20018;-73
2022/01/29 02:58:41;;;;;;;7.85;3.17;;;;;;;0.22;60.04;94347.53;5005869;28;20018;-72
2022/01/29 03:01:08;;;;;;;5.55;2.95;;;;;;;0.24;59.68;94348.09;5006354;28;20234;-72
2022/01/29 03:03:33;;;;;;;5.78;2.88;;;;;;;0.16;59.81;94354.53;5005893;28;20041;-72
2022/01/29 03:06:02;;;;;;;6.20;3.13;;;;;;;0.13;59.85;94354.19;5005838;28;20417;-72
2022/01/29 03:08:28;;;;;;;7.28;3.03;;;;;;;0.12;59.76;94357.84;5005826;28;20022;-73
2022/01/29 03:10:53;;;;;;;7.53;2.90;;;;;;;0.13;59.70;94362.84;5005462;28;20061;-72
2022/01/29 03:13:19;;;;;;;5.65;2.80;;;;;;;0.18;60.11;94355.09;5005777;28;20033;-72
2022/01/29 03:15:44;;;;;;;6.53;3.03;;;;;;;0.09;59.95;94340.75;5005790;28;20029;-72
2022/01/29 03:18:09;;;;;;;6.03;2.60;;;;;;;0.06;59.05;94354.34;5005619;28;20087;-73
2022/01/29 03:20:35;;;;;;;9.35;3.17;;;;;;;0.09;58.13;94348.63;5005798;28;20023;-73
2022/01/29 03:23:01;;;;;;;5.55;2.50;;;;;;;0.10;58.61;94363.34;5005655;28;20932;-73
2022/01/29 03:25:26;;;;;;;3.08;2.03;;;;;;;-0.03;58.07;94343.44;5004360;28;20105;-73
2022/01/29 03:27:52;;;;;;;5.53;2.10;;;;;;;-0.03;57.44;94350.50;5005717;28;20022;-73
2022/01/29 03:30:18;;;;;;;5.40;2.10;;;;;;;-0.01;58.06;94345.81;5005538;28;20037;-73
2022/01/29 03:32:44;;;;;;;4.43;2.38;;;;;;;0.01;57.28;94354.25;5005207;28;20029;-73
2022/01/29 03:35:10;;;;;;;5.13;2.05;;;;;;;0.02;57.25;94347.16;4987920;28;20074;-73
2022/01/29 03:37:36;;;;;;;4.78;1.98;;;;;;;-0.03;57.39;94345.25;5005412;28;20029;-73
2022/01/29 03:40:05;;;;;;;5.03;2.17;;;;;;;0.00;57.95;94342.19;5005112;28;20224;-73
2022/01/29 03:42:35;;;;;;;6.95;2.33;;;;;;;0.04;58.24;94345.94;5005049;28;20034;-73
2022/01/29 03:45:00;;;;;;;3.65;1.92;;;;;;;0.00;57.58;94344.81;5004816;28;20038;-73
2022/01/29 03:47:26;;;;;;;5.82;2.72;;;;;;;-0.02;58.25;94341.59;5005062;28;20214;-73
2022/01/29 03:49:51;;;;;;;4.10;2.00;;;;;;;-0.05;58.27;94342.88;5005268;28;20260;-73
2022/01/29 03:52:17;;;;;;;5.32;2.10;;;;;;;-0.06;58.72;94343.09;5005145;28;20010;-72
2022/01/29 03:54:43;;;;;;;3.20;1.98;;;;;;;-0.05;58.85;94336.84;5004919;28;20022;-73
2022/01/29 03:57:09;;;;;;;4.50;2.58;;;;;;;-0.03;59.64;94340.81;5005056;28;20045;-72
2022/01/29 03:59:34;;;;;;;3.00;1.80;;;;;;;-0.06;59.50;94338.66;5004914;28;20026;-72
2022/01/29 04:02:00;;;;;;;4.70;2.42;;;;;;;-0.11;59.63;94328.09;5004732;28;20041;-73
2022/01/29 04:04:25;;;;;;;4.47;2.25;;;;;;;-0.07;59.67;94336.28;5004892;28;20094;-72
2022/01/29 04:06:51;;;;;;;5.60;2.50;;;;;;;-0.10;59.77;94328.88;5004732;28;20065;-72
2022/01/29 04:09:17;;;;;;;7.10;2.30;;;;;;;-0.16;59.98;94325.38;5004716;28;20216;-72
2022/01/29 04:11:45;;;;;;;3.65;2.42;;;;;;;-0.09;60.11;94330.47;5004865;28;20026;-73
2022/01/29 04:14:17;;;;;;;4.45;2.63;;;;;;;-0.10;59.50;94334.94;5004774;28;20041;-73
2022/01/29 04:16:43;;;;;;;5.85;1.85;;;;;;;-0.08;59.66;94327.63;5004448;28;20068;-73
2022/01/29 04:19:09;;;;;;;3.53;1.88;;;;;;;-0.08;58.70;94316.31;5004806;28;20030;-73
2022/01/29 04:21:34;;;;;;;4.32;2.05;;;;;;;-0.07;58.66;94318.72;5004553;28;20277;-72
2022/01/29 04:24:00;;;;;;;4.47;1.90;;;;;;;-0.04;58.68;94322.69;5004545;28;20313;-72
2022/01/29 04:26:25;;;;;;;3.00;1.65;;;;;;;0.02;58.59;94331.44;5004421;28;20026;-73
2022/01/29 04:28:52;;;;;;;4.68;2.05;;;;;;;0.01;57.77;94325.41;5004261;28;20065;-73
2022/01/29 04:31:20;;;;;;;3.58;1.50;;;;;;;-0.02;58.01;94325.88;5004305;28;20026;-73
2022/01/29 04:33:46;;;;;;;2.85;1.70;;;;;;;-0.01;57.78;94340.56;5004350;28;20026;-73
2022/01/29 04:36:12;;;;;;;4.22;1.38;;;;;;;-0.04;57.58;94333.16;5004112;28;20042;-72
2022/01/29 04:38:38;;;;;;;4.95;2.28;;;;;;;-0.07;58.13;94333.66;5004263;28;20105;-71
2022/01/29 04:41:04;;;;;;;4.47;1.75;;;;;;;-0.05;58.14;94328.97;5004014;28;20272;-72
2022/01/29 04:43:32;;;;;;;6.20;1.88;;;;;;;-0.02;58.52;94331.94;5004118;28;20045;-73
2022/01/29 04:45:58;;;;;;;4.70;2.20;;;;;;;-0.04;58.67;94338.41;4986765;28;20197;-72
2022/01/29 04:48:24;;;;;;;7.63;2.10;;;;;;;-0.04;58.97;94338.41;5003906;28;20069;-72
2022/01/29 04:50:50;;;;;;;4.20;1.95;;;;;;;-0.03;58.76;94346.06;5004050;28;20018;-72
2022/01/29 04:53:16;;;;;;;5.22;1.80;;;;;;;-0.05;58.95;94339.47;5003774;28;20037;-73
2022/01/29 04:55:41;;;;;;;4.30;2.25;;;;;;;-0.07;59.09;94346.75;5002975;28;20304;-73
2022/01/29 04:58:07;;;;;;;5.20;2.60;;;;;;;-0.17;59.41;94336.88;5004118;28;20032;-73
2022/01/29 05:00:33;;;;;;;4.70;1.80;;;;;;;-0.19;59.51;94351.25;5003676;28;20034;-73
2022/01/29 05:03:07;;;;;;;5.75;2.22;;;;;;;-0.19;59.75;94340.78;5003661;28;20225;-72
2022/01/29 05:05:33;;;;;;;3.30;1.90;;;;;;;-0.19;59.93;94346.81;5003753;28;20292;-73
2022/01/29 05:07:58;;;;;;;3.55;1.95;;;;;;;-0.18;60.31;94347.59;5003610;28;20072;-74
2022/01/29 05:10:24;;;;;;;6.63;2.25;;;;;;;-0.17;60.44;94354.44;5003648;28;20018;-72
2022/01/29 05:12:58;;;;;;;7.18;2.85;;;;;;;-0.25;60.84;94353.75;5003608;28;20061;-72
2022/01/29 05:15:43;;;;;;;3.17;1.77;;;;;;;-0.24;60.78;94358.00;5003272;28;20109;-72
2022/01/29 05:29:10;;;;;;;4.72;2.65;;;;;;;-0.38;62.51;94364.53;5003559;28;20029;-72
2022/01/29 05:31:36;;;;;;;8.05;3.10;;;;;;;-0.43;62.88;94359.16;5003180;28;20018;-74
2022/01/29 05:34:02;;;;;;;5.40;2.75;;;;;;;-0.46;62.55;94373.53;5003446;28;20092;-74
2022/01/29 05:36:27;;;;;;;5.70;2.47;;;;;;;-0.47;62.88;94366.72;5003156;28;20034;-74
2022/01/29 05:38:53;;;;;;;10.07;3.20;;;;;;;-0.46;62.83;94364.88;5002918;28;20026;-73
2022/01/29 05:41:19;;;;;;;8.57;3.35;;;;;;;-0.39;62.88;94372.59;5003242;28;20022;-73
2022/01/29 05:43:44;;;;;;;8.52;2.88;;;;;;;-0.34;62.77;94376.13;5003325;28;20076;-74
2022/01/29 05:46:15;;;;;;;4.65;2.72;;;;;;;-0.37;62.75;94384.44;5003023;28;20316;-73
2022/01/29 05:48:41;;;;;;;5.65;2.85;;;;;;;-0.33;62.72;94380.31;5002984;28;20038;-73
2022/01/29 05:51:07;;;;;;;6.72;3.25;;;;;;;-0.31;62.92;94401.06;5002766;28;20026;-74
2022/01/29 05:53:33;;;;;;;7.55;2.90;;;;;;;-0.29;62.90;94391.94;5002919;28;20265;-73
2022/01/29 05:55:59;;;;;;;6.13;3.00;;;;;;;-0.30;63.05;94402.66;5003037;28;20164;-73
2022/01/29 05:58:24;;;;;;;7.55;3.17;;;;;;;-0.28;63.14;94405.84;5002691;28;20034;-73
2022/01/29 06:00:50;;;;;;;4.63;2.65;;;;;;;-0.35;63.02;94413.81;5003014;28;20031;-73
2022/01/29 06:03:15;;;;;;;5.85;2.65;;;;;;;-0.31;62.81;94412.31;5002919;28;20309;-73
2022/01/29 06:05:41;;;;;;;5.05;2.28;;;;;;;-0.33;63.08;94417.00;5002919;28;20026;-73
2022/01/29 06:08:06;;;;;;;7.57;3.45;;;;;;;-0.32;63.29;94402.88;5002981;28;20104;-73
2022/01/29 06:10:32;;;;;;;4.90;2.72;;;;;;;-0.32;63.28;94421.22;5002894;28;20033;-73
2022/01/29 06:12:59;;;;;;;7.57;2.95;;;;;;;-0.34;63.59;94423.28;5002715;28;20050;-73
2022/01/29 06:15:25;;;;;;;6.40;3.03;;;;;;;-0.33;63.26;94424.06;5002929;28;20228;-74
2022/01/29 06:17:50;;;;;;;5.53;2.60;;;;;;;-0.36;63.70;94430.56;5002742;28;20026;-74
2022/01/29 06:20:15;;;;;;;6.43;3.17;;;;;;;-0.37;63.74;94421.09;5002497;28;20030;-73
2022/01/29 06:22:42;;;;;;;7.03;2.55;;;;;;;-0.30;62.85;94413.94;5002661;28;20026;-74
2022/01/29 06:25:08;;;;;;;4.65;2.42;;;;;;;-0.29;63.16;94422.56;5002786;28;20117;-73
2022/01/29 06:27:33;;;;;;;4.93;2.67;;;;;;;-0.34;63.57;94418.03;5002611;28;20292;-73
2022/01/29 06:29:59;;;;;;;6.90;3.35;;;;;;;-0.33;63.40;94409.13;5002549;28;20053;-73
2022/01/29 06:32:24;;;;;;;7.25;2.78;;;;;;;-0.27;62.88;94402.19;5002478;28;20023;-73
2022/01/29 06:34:50;;;;;;;4.68;2.85;;;;;;;-0.26;62.37;94412.44;5002326;28;20038;-73
2022/01/29 06:37:16;;;;;;;5.93;2.72;;;;;;;-0.22;62.27;94415.41;5002558;28;20042;-73
2022/01/29 06:39:41;;;;;;;5.80;2.75;;;;;;;-0.11;62.60;94414.56;5002402;28;20033;-72
2022/01/29 06:42:07;;;;;;;8.25;2.67;;;;;;;-0.09;62.05;94414.34;4985148;28;20312;-73
2022/01/29 06:44:32;;;;;;;3.72;2.30;;;;;;;-0.01;61.94;94427.06;5002678;28;20026;-72
2022/01/29 06:46:57;;;;;;;6.95;2.70;;;;;;;0.02;61.56;94426.63;5002364;28;20271;-73
2022/01/29 06:49:23;;;;;;;7.32;3.00;;;;;;;-0.01;61.65;94433.09;5002253;28;20107;-73
2022/01/29 06:51:49;;;;;;;5.10;2.28;;;;;;;0.06;61.74;94442.66;4984737;28;20030;-72
2022/01/29 06:54:14;;;;;;;7.55;3.10;;;;;;;0.08;61.66;94446.66;5002474;28;20033;-74
2022/01/29 06:56:39;;;;;;;7.70;3.05;;;;;;;0.10;62.04;94443.78;5002850;28;20063;-74
2022/01/29 06:59:05;;;;;;;5.93;2.92;;;;;;;0.18;61.67;94440.78;5002323;28;20030;-74
2022/01/29 07:01:30;;;;;;;8.65;2.90;;;;;;;0.19;61.17;94448.41;5002332;28;20027;-73
2022/01/29 07:03:56;;;;;;;5.35;2.70;;;;;;;0.22;61.40;94446.38;5002185;28;20318;-73
2022/01/29 07:06:21;;;;;;;6.90;3.00;;;;;;;0.31;61.52;94468.56;5002125;28;20384;-75
2022/01/29 07:08:46;;;;;;;4.20;2.72;;;;;;;0.21;61.51;94455.28;5002056;28;20289;-74
2022/01/29 07:11:12;;;;;;;6.57;3.28;;;;;;;0.17;61.97;94453.09;5002132;28;20018;-73
2022/01/29 07:13:37;;;;;;;7.40;3.95;;;;;;;0.33;62.22;94463.88;4984989;28;20019;-73
2022/01/29 07:16:03;;;;;;;7.50;3.30;;;;;;;0.29;61.94;94460.16;5002232;28;20022;-73
2022/01/29 07:18:29;;;;;;;7.22;3.60;;;;;;;0.29;61.52;94462.78;5003075;28;20027;-74
2022/01/29 07:20:54;;;;;;;5.97;3.42;;;;;;;0.24;61.76;94466.06;5005554;28;20018;-74
2022/01/29 07:23:19;;;;;;;7.55;3.75;;;;;;;0.43;61.84;94474.56;5005621;28;20018;-75
2022/01/29 07:25:45;;;;;;;7.50;3.78;;;;;;;0.41;61.83;94468.75;5005589;28;20030;-73
2022/01/29 07:28:10;;;;;;;7.78;3.30;;;;;;;0.32;61.37;94467.53;5005829;28;20267;-74
2022/01/29 07:30:36;;;;;;;7.15;2.92;;;;;;;0.33;61.99;94458.66;5005725;28;20061;-74
2022/01/29 07:33:01;;;;;;;6.05;3.08;;;;;;;0.27;62.22;94470.06;5005539;28;20093;-74
2022/01/29 07:35:27;;;;;;;5.55;3.00;;;;;;;0.29;62.20;94484.53;5005273;28;20038;-73
2022/01/29 07:37:52;;;;;;;5.28;3.00;;;;;;;0.23;62.72;94468.94;5005231;28;20320;-75
2022/01/29 07:40:18;;;;;;;4.97;2.78;;;;;;;0.16;62.45;94467.25;5005322;28;20027;-74
2022/01/29 07:42:43;;;;;;;6.95;3.33;;;;;;;0.24;62.57;94481.00;5005570;28;20036;-74
2022/01/29 07:45:09;;;;;;;6.75;3.08;;;;;;;0.25;62.17;94486.03;5005435;28;20046;-73
2022/01/29 07:47:36;;;;;;;9.20;2.95;;;;;;;0.25;62.21;94490.47;5005216;28;20081;-74
2022/01/29 07:50:02;;;;;;;6.50;3.00;;;;;;;0.25;62.01;94487.88;5005098;28;20030;-74
2022/01/29 07:52:28;;;;;;;7.90;3.28;;;;;;;0.21;62.39;94489.34;5004172;28;20150;-74
2022/01/29 07:54:53;;;;;;;5.60;2.80;;;;;;;0.26;62.31;94484.97;5005309;28;20049;-76
2022/01/29 07:57:19;;;;;;;7.60;2.70;;;;;;;0.24;62.24;94481.00;5005358;28;20037;-74
2022/01/29 07:59:44;;;;;;;7.63;3.58;;;;;;;0.33;62.54;94492.75;5005296;28;20093;-76
2022/01/29 08:02:09;;;;;;;6.82;3.40;;;;;;;0.24;62.70;94502.78;5005216;28;20093;-76
2022/01/29 08:04:35;;;;;;;6.15;3.53;;;;;;;0.30;62.46;94504.47;5004878;28;20030;-76
2022/01/29 08:07:00;;;;;;;4.63;3.00;;;;;;;0.24;62.09;94491.50;5004923;28;20022;-76
2022/01/29 08:09:26;;;;;;;6.95;3.42;;;;;;;0.34;62.68;94496.94;5004929;28;20042;-75
2022/01/29 08:11:51;;;;;;;8.23;3.70;;;;;;;0.41;62.85;94505.47;5004961;28;20209;-75
2022/01/29 08:14:17;;;;;;;7.72;3.30;;;;;;;0.54;61.81;94502.56;5005036;28;20076;-76
2022/01/29 08:16:42;;;;;;;7.22;3.28;;;;;;;0.58;62.34;94502.91;5005124;28;20026;-76
2022/01/29 08:19:07;;;;;;;5.15;2.75;;;;;;;0.57;61.69;94491.63;5005000;28;20029;-76
2022/01/29 08:21:33;;;;;;;6.15;2.83;;;;;;;0.56;61.95;94504.97;5004812;28;20093;-77
2022/01/29 08:23:58;;;;;;;6.70;2.72;;;;;;;0.55;61.76;94511.22;5005087;28;20022;-76
2022/01/29 08:26:24;;;;;;;10.07;3.33;;;;;;;0.49;61.72;94510.34;5005256;28;20030;-77
2022/01/29 08:28:49;;;;;;;7.45;3.92;;;;;;;0.52;61.96;94512.50;5004764;28;20323;-75
2022/01/29 08:31:14;;;;;;;8.25;3.47;;;;;;;0.59;61.76;94507.91;5003331;28;20022;-75
2022/01/29 08:33:40;;;;;;;8.32;3.70;;;;;;;0.67;61.25;94505.94;5004522;28;20022;-76
2022/01/29 08:36:08;;;;;;;6.82;3.40;;;;;;;0.70;61.46;94510.72;5004350;28;20022;-75
2022/01/29 08:38:34;;;;;;;8.55;4.22;;;;;;;0.72;61.54;94513.91;5004584;28;20018;-75
2022/01/29 08:40:59;;;;;;;8.38;3.58;;;;;;;0.70;61.81;94515.97;5004474;28;20153;-75
2022/01/29 08:43:26;;;;;;;7.15;2.92;;;;;;;0.69;61.79;94519.63;5004326;28;20018;-74
2022/01/29 08:45:52;;;;;;;4.97;3.30;;;;;;;0.55;62.25;94522.53;5004172;28;20030;-75
2022/01/29 08:48:18;;;;;;;8.82;3.35;;;;;;;0.52;62.65;94514.31;5003789;28;20042;-75
2022/01/29 08:50:43;;;;;;;8.02;3.25;;;;;;;0.60;62.29;94517.38;5004283;28;20068;-75
2022/01/29 08:53:09;;;;;;;7.03;3.55;;;;;;;0.75;62.26;94523.91;5004461;28;20248;-75
2022/01/29 08:55:36;;;;;;;11.98;4.50;;;;;;;0.91;61.93;94515.28;5004018;28;20072;-73
2022/01/29 08:58:11;;;;;;;7.18;3.53;;;;;;;1.02;62.06;94518.91;5004107;28;20049;-75
2022/01/29 09:00:40;;;;;;;7.22;3.40;;;;;;;1.13;61.10;94514.59;5004236;28;20061;-75
2022/01/29 09:03:05;;;;;;;11.10;3.92;;;;;;;1.20;61.30;94518.69;5003983;28;20040;-75
2022/01/29 09:05:31;;;;;;;7.03;2.88;;;;;;;1.13;60.80;94519.84;5003976;28;20018;-75
2022/01/29 09:07:56;;;;;;;7.20;3.20;;;;;;;1.11;61.18;94532.44;5004025;28;20212;-75
2022/01/29 09:10:22;;;;;;;6.07;3.03;;;;;;;1.20;61.25;94538.88;5003601;28;20021;-74
2022/01/29 09:12:47;;;;;;;5.60;3.33;;;;;;;1.11;61.03;94535.06;5003705;28;20022;-74
2022/01/29 09:15:13;;;;;;;7.38;3.60;;;;;;;0.97;61.80;94542.44;5003691;28;20089;-75
2022/01/29 09:17:39;;;;;;;8.52;3.90;;;;;;;0.94;61.39;94542.91;5003910;28;20118;-75
2022/01/29 09:20:10;;;;;;;6.57;3.88;;;;;;;1.03;61.88;94544.09;5002441;28;20030;-74
2022/01/29 09:22:36;;;;;;;7.63;4.05;;;;;;;0.95;61.84;94531.38;5003452;28;20026;-74
2022/01/29 09:25:02;;;;;;;5.22;3.28;;;;;;;1.05;62.23;94528.13;5003330;28;20030;-74
2022/01/29 09:27:27;;;;;;;7.85;3.85;;;;;;;0.88;62.18;94528.09;5003577;28;20056;-75
2022/01/29 09:29:53;;;;;;;12.40;4.65;;;;;;;0.95;62.76;94526.91;5003668;28;20371;-75
2022/01/29 09:32:18;;;;;;;14.30;6.03;;;;;;;0.97;62.70;94535.34;5003622;28;20054;-75
2022/01/29 09:34:43;;;;;;;8.32;5.25;;;;;;;1.00;62.30;94532.25;5003367;28;20038;-76
2022/01/29 09:37:09;;;;;;;7.43;4.63;;;;;;;0.84;62.33;94527.78;5002576;28;20093;-75
2022/01/29 09:39:34;;;;;;;9.10;4.68;;;;;;;0.91;62.53;94533.66;5003596;28;20030;-75
2022/01/29 09:42:01;;;;;;;12.95;4.57;;;;;;;1.03;62.67;94514.44;5003143;28;20201;-75
2022/01/29 09:44:27;;;;;;;9.25;5.38;;;;;;;1.15;62.40;94521.22;5003076;28;20046;-75
2022/01/29 09:46:53;;;;;;;8.57;3.90;;;;;;;1.12;61.79;94534.81;5003177;28;20038;-75
2022/01/29 09:49:18;;;;;;;6.82;3.33;;;;;;;1.13;61.84;94530.38;5002977;28;20096;-76
2022/01/29 09:51:44;;;;;;;8.13;4.00;;;;;;;1.10;61.85;94525.56;5003038;28;20029;-75
2022/01/29 09:54:10;;;;;;;12.65;4.68;;;;;;;1.29;61.70;94531.41;5003355;28;20094;-75
2022/01/29 09:56:36;;;;;;;8.52;4.90;;;;;;;1.27;61.87;94530.84;5003241;28;20060;-75
2022/01/29 09:59:02;;;;;;;7.47;4.20;;;;;;;1.20;61.51;94531.00;5003248;28;20026;-75
2022/01/29 10:01:27;;;;;;;12.63;4.53;;;;;;;1.30;60.68;94531.16;5002980;28;20073;-75
2022/01/29 10:04:04;;;;;;;10.27;4.55;;;;;;;1.39;60.25;94535.00;5002936;28;20256;-75
2022/01/29 10:06:31;;;;;;;8.20;4.53;;;;;;;1.40;59.71;94536.59;5003177;28;20093;-75
2022/01/29 10:08:57;;;;;;;7.40;4.13;;;;;;;1.47;59.49;94530.38;5003128;28;20034;-75
2022/01/29 10:11:25;;;;;;;5.95;3.63;;;;;;;1.34;58.65;94524.41;5003113;28;20283;-76
2022/01/29 10:13:51;;;;;;;7.50;4.07;;;;;;;1.27;59.76;94517.72;5002878;28;20030;-76
2022/01/29 10:16:23;;;;;;;10.13;4.50;;;;;;;1.27;59.52;94520.34;5002845;28;20032;-76
2022/01/29 10:19:27;;;;;;;7.10;4.60;;;;;;;1.33;59.93;94519.41;5003003;28;20228;-76
2022/01/29 10:21:52;;;;;;;12.40;3.90;;;;;;;1.37;59.81;94516.03;4998582;28;20030;-77
2022/01/29 10:24:19;;;;;;;7.90;4.53;;;;;;;1.39;59.90;94513.97;5002859;28;20077;-75
2022/01/29 10:26:49;;;;;;;7.00;4.20;;;;;;;1.23;60.46;94520.03;5002894;28;20255;-76
2022/01/29 10:29:20;;;;;;;7.22;4.53;;;;;;;1.08;60.94;94522.38;5002772;28;20026;-75
2022/01/29 10:31:51;;;;;;;8.93;4.22;;;;;;;1.03;61.93;94532.81;5002608;28;20030;-73
2022/01/29 10:34:22;;;;;;;8.18;4.53;;;;;;;1.00;62.29;94534.88;5002068;28;20038;-73
2022/01/29 10:37:16;;;;;;;10.25;5.43;;;;;;;1.09;62.60;94524.00;5002982;28;20040;-75
2022/01/29 10:39:43;;;;;;;9.32;6.35;;;;;;;1.12;62.33;94532.19;5002794;28;20042;-76
2022/01/29 10:42:20;;;;;;;11.77;4.65;;;;;;;1.02;62.19;94528.59;5002801;28;20042;-75
2022/01/29 10:44:48;;;;;;;6.60;4.38;;;;;;;0.94;62.85;94538.44;4985320;28;20113;-74
2022/01/29 10:47:14;;;;;;;7.03;4.47;;;;;;;0.93;63.33;94531.59;5002592;28;20275;-74
2022/01/29 10:49:50;;;;;;;9.85;4.97;;;;;;;0.97;63.12;94526.69;5002670;28;20086;-74
2022/01/29 10:52:16;;;;;;;13.02;5.40;;;;;;;1.05;62.11;94533.38;5002757;28;20030;-77
2022/01/29 10:54:44;;;;;;;9.05;5.53;;;;;;;1.01;62.42;94540.91;5005960;28;20026;-75
2022/01/29 10:57:11;;;;;;;9.63;5.07;;;;;;;0.89;62.24;94540.19;5006335;28;20027;-76
2022/01/29 10:59:46;;;;;;;10.48;4.13;;;;;;;0.78;62.96;94539.22;5006126;28;20034;-75
2022/01/29 11:02:12;;;;;;;14.95;6.07;;;;;;;0.89;63.25;94532.31;5006283;28;20053;-75
2022/01/29 11:04:40;;;;;;;9.68;5.50;;;;;;;1.03;62.85;94530.97;4988609;28;20034;-75
2022/01/29 11:07:12;;;;;;;11.05;5.22;;;;;;;0.87;62.87;94534.38;4988704;28;20034;-76
2022/01/29 11:09:46;;;;;;;10.25;5.30;;;;;;;0.74;63.35;94528.38;4988814;28;20093;-75
2022/01/29 11:12:16;;;;;;;10.00;5.35;;;;;;;0.85;63.59;94533.81;5005504;28;20034;-74
2022/01/29 11:14:42;;;;;;;11.38;6.18;;;;;;;0.83;63.12;94518.28;4988795;28;20093;-76
2022/01/29 11:17:10;;;;;;;10.77;5.65;;;;;;;0.81;62.82;94522.97;5006063;28;20026;-76
2022/01/29 11:19:38;;;;;;;9.18;5.25;;;;;;;0.76;63.16;94515.03;5005735;28;20030;-76
2022/01/29 11:22:28;;;;;;;11.48;6.28;;;;;;;0.73;63.22;94516.31;5006329;28;20033;-75
2022/01/29 11:24:58;;;;;;;11.80;5.85;;;;;;;0.83;63.23;94517.50;5006076;28;20216;-75
2022/01/29 11:27:25;;;;;;;8.93;5.22;;;;;;;0.80;63.83;94506.44;5005342;28;20022;-74
2022/01/29 11:29:58;;;;;;;12.45;4.93;;;;;;;0.90;63.11;94516.34;5005486;28;20098;-74
2022/01/29 11:32:32;;;;;;;7.70;4.82;;;;;;;0.90;62.79;94518.97;5005644;28;20031;-75
2022/01/29 11:35:40;;;;;;;;;;;;;;;;;;;;;
2022/01/29 11:38:08;;;;;;;9.27;5.60;;;;;;;1.06;62.75;94511.31;5002002;28;20042;-73
2022/01/29 11:40:47;;;;;;;;;;;;;;;;;;;;;
2022/01/29 11:43:18;;;;;;;12.52;6.07;;;;;;;1.12;61.86;94515.63;5003057;28;20042;-75
2022/01/29 11:45:46;;;;;;;10.98;5.72;;;;;;;1.05;62.11;94512.38;4988148;28;20033;-75
2022/01/29 11:48:23;;;;;;;11.93;6.55;;;;;;;1.22;62.19;94512.38;5005524;28;20049;-74
2022/01/29 11:50:49;;;;;;;14.30;6.28;;;;;;;1.14;62.18;94510.94;5004773;28;20026;-75
2022/01/29 11:53:19;;;;;;;14.63;7.28;;;;;;;1.28;62.08;94514.06;5005075;28;20065;-74